createdAt,value
2019-04-30T00:02:16.027Z,18.60
2019-04-30T00:04:48.677Z,18.30
2019-04-30T00:07:19.180Z,18.60
2019-04-30T00:09:54.032Z,18.50
2019-04-30T00:12:21.674Z,18.30
2019-04-30T00:14:51.866Z,19.10
2019-04-30T00:17:22.523Z,19.73
2019-04-30T00:19:55.854Z,18.63
2019-04-30T00:22:33.324Z,19.37
2019-04-30T00:24:56.271Z,19.43
2019-04-30T00:27:30.325Z,18.77
2019-04-30T00:30:07.294Z,19.33
2019-04-30T00:32:32.459Z,17.73
2019-04-30T00:35:02.578Z,18.13
2019-04-30T00:37:32.729Z,18.73
2019-04-30T00:40:02.767Z,18.93
2019-04-30T00:42:32.879Z,17.70
2019-04-30T00:45:06.655Z,18.23
2019-04-30T00:47:35.198Z,18.53
2019-04-30T00:50:06.004Z,17.80
2019-04-30T00:52:37.387Z,18.37
2019-04-30T00:55:09.216Z,17.13
2019-04-30T00:57:43.826Z,17.90
2019-04-30T01:00:17.787Z,17.40
2019-04-30T01:02:51.229Z,16.87
2019-04-30T01:05:21.338Z,17.23
2019-04-30T01:07:52.103Z,17.93
2019-04-30T01:10:24.731Z,17.30
2019-04-30T01:12:54.359Z,17.23
2019-04-30T01:15:24.503Z,17.30
2019-04-30T01:17:54.580Z,17.30
2019-04-30T01:20:31.104Z,17.30
2019-04-30T01:22:58.665Z,16.23
2019-04-30T01:25:29.190Z,17.13
2019-04-30T01:27:59.615Z,18.33
2019-04-30T01:30:30.684Z,18.20
2019-04-30T01:33:01.157Z,17.63
2019-04-30T01:35:32.785Z,18.33
2019-04-30T01:38:04.161Z,17.83
2019-04-30T01:40:35.279Z,18.83
2019-04-30T01:43:05.335Z,18.30
2019-04-30T01:45:35.458Z,18.93
2019-04-30T01:48:11.999Z,18.80
2019-04-30T01:50:38.662Z,19.00
2019-04-30T01:53:13.138Z,19.07
2019-04-30T01:55:49.664Z,18.53
2019-04-30T01:58:34.739Z,16.97
2019-04-30T02:01:10.267Z,18.17
2019-04-30T02:03:40.278Z,17.87
2019-04-30T02:06:11.592Z,18.70
2019-04-30T02:08:41.807Z,18.70
2019-04-30T02:11:11.878Z,19.60
2019-04-30T02:13:41.912Z,18.83
2019-04-30T02:16:12.310Z,20.20
2019-04-30T02:18:44.433Z,19.53
2019-04-30T02:21:14.572Z,19.10
2019-04-30T02:23:44.596Z,19.53
2019-04-30T02:26:14.722Z,20.73
2019-04-30T02:28:44.801Z,19.57
2019-04-30T02:31:14.841Z,19.97
2019-04-30T02:33:50.255Z,20.57
2019-04-30T02:36:34.377Z,19.97
2019-04-30T02:39:05.457Z,20.27
2019-04-30T02:41:36.849Z,19.90
2019-04-30T02:44:09.743Z,20.57
2019-04-30T02:46:41.877Z,20.17
2019-04-30T02:49:13.226Z,20.00
2019-04-30T02:51:45.688Z,21.27
2019-04-30T02:54:24.696Z,19.77
2019-04-30T02:57:11.626Z,18.13
2019-04-30T03:00:00.524Z,18.57
2019-04-30T03:02:31.963Z,18.03
2019-04-30T03:05:02.074Z,17.93
2019-04-30T03:07:33.731Z,15.30
2019-04-30T03:10:04.324Z,13.70
2019-04-30T03:12:35.696Z,14.07
2019-04-30T03:15:06.580Z,12.07
2019-04-30T03:17:50.646Z,13.93
2019-04-30T03:20:40.223Z,14.37
2019-04-30T03:23:10.446Z,13.60
2019-04-30T03:25:40.697Z,11.90
2019-04-30T03:28:11.029Z,10.60
2019-04-30T03:30:42.380Z,9.57
2019-04-30T03:33:13.534Z,9.43
2019-04-30T03:35:47.689Z,9.53
2019-04-30T03:38:15.711Z,9.70
2019-04-30T03:40:45.812Z,9.13
2019-04-30T03:43:15.893Z,9.60
2019-04-30T03:45:45.934Z,9.20
2019-04-30T03:48:15.985Z,9.37
2019-04-30T03:50:53.310Z,8.70
2019-04-30T03:53:20.105Z,9.07
2019-04-30T03:55:50.606Z,9.43
2019-04-30T03:58:21.573Z,8.80
2019-04-30T04:01:10.127Z,10.13
2019-04-30T04:04:00.464Z,10.43
2019-04-30T04:06:39.469Z,9.87
2019-04-30T04:09:16.458Z,11.13
2019-04-30T04:11:50.558Z,11.60
2019-04-30T04:14:19.871Z,12.23
2019-04-30T04:16:50.798Z,11.97
2019-04-30T04:19:21.253Z,12.10
2019-04-30T04:21:51.327Z,13.27
2019-04-30T04:24:21.450Z,13.20
2019-04-30T04:26:51.553Z,12.70
2019-04-30T04:29:21.688Z,13.03
2019-04-30T04:31:51.711Z,12.70
2019-04-30T04:34:21.815Z,12.23
2019-04-30T04:36:51.861Z,12.67
2019-04-30T04:39:22.003Z,12.80
2019-04-30T04:41:52.157Z,11.93
2019-04-30T04:44:22.204Z,12.33
2019-04-30T04:46:52.257Z,12.33
2019-04-30T04:49:22.362Z,12.80
2019-04-30T04:51:52.561Z,11.83
2019-04-30T04:54:22.780Z,12.90
2019-04-30T04:56:54.900Z,12.40
2019-04-30T04:59:24.645Z,12.83
2019-04-30T05:01:54.876Z,12.93
2019-04-30T05:04:24.953Z,12.50
2019-04-30T05:06:55.084Z,12.10
2019-04-30T05:09:25.261Z,13.50
2019-04-30T05:11:55.370Z,12.70
2019-04-30T05:14:25.570Z,12.00
2019-04-30T05:16:55.705Z,12.40
2019-04-30T05:19:25.760Z,12.07
2019-04-30T05:21:55.815Z,12.20
2019-04-30T05:24:28.560Z,12.13
2019-04-30T05:26:58.699Z,12.17
2019-04-30T05:29:29.000Z,12.73
2019-04-30T05:32:00.777Z,12.17
2019-04-30T05:34:30.949Z,12.33
2019-04-30T05:37:01.070Z,12.90
2019-04-30T05:39:31.156Z,11.90
2019-04-30T05:42:01.454Z,12.10
2019-04-30T05:44:31.603Z,12.60
2019-04-30T05:47:01.645Z,12.57
2019-04-30T05:49:31.782Z,12.83
2019-04-30T05:52:01.858Z,12.57
2019-04-30T05:54:32.121Z,12.50
2019-04-30T05:57:02.266Z,11.67
2019-04-30T05:59:32.285Z,12.70
2019-04-30T06:02:02.428Z,12.70
2019-04-30T06:04:32.467Z,12.10
2019-04-30T06:07:02.529Z,13.23
2019-04-30T06:09:39.455Z,13.90
2019-04-30T06:12:24.459Z,13.27
2019-04-30T06:15:00.009Z,12.73
2019-04-30T06:17:30.544Z,12.60
2019-04-30T06:20:00.606Z,13.07
2019-04-30T06:22:30.727Z,12.50
2019-04-30T06:25:00.793Z,12.50
2019-04-30T06:27:31.090Z,13.30
2019-04-30T06:30:01.806Z,12.33
2019-04-30T06:32:32.575Z,12.87
2019-04-30T06:35:03.347Z,12.50
2019-04-30T06:37:33.475Z,13.23
2019-04-30T06:40:03.626Z,13.33
2019-04-30T06:42:34.031Z,13.23
2019-04-30T06:45:06.369Z,12.93
2019-04-30T06:47:38.912Z,13.60
2019-04-30T06:50:09.796Z,13.50
2019-04-30T06:52:40.092Z,12.80
2019-04-30T06:55:10.477Z,13.33
2019-04-30T06:57:40.561Z,13.33
2019-04-30T07:00:12.529Z,12.40
2019-04-30T07:02:42.629Z,13.73
2019-04-30T07:05:12.982Z,13.17
2019-04-30T07:08:08.814Z,13.70
2019-04-30T07:10:35.825Z,12.80
2019-04-30T07:13:18.807Z,14.50
2019-04-30T07:15:49.379Z,14.20
2019-04-30T07:18:19.420Z,14.03
2019-04-30T07:20:49.546Z,13.97
2019-04-30T07:23:19.570Z,13.77
2019-04-30T07:25:51.780Z,12.87
2019-04-30T07:28:21.680Z,13.03
2019-04-30T07:31:07.633Z,13.63
2019-04-30T07:33:23.682Z,14.10
2019-04-30T07:35:53.725Z,13.67
2019-04-30T07:38:23.823Z,13.37
2019-04-30T07:40:53.873Z,13.90
2019-04-30T07:43:23.912Z,13.10
2019-04-30T07:45:54.035Z,13.57
2019-04-30T07:48:26.592Z,14.53
2019-04-30T07:50:55.867Z,14.37
2019-04-30T07:53:26.017Z,13.70
2019-04-30T07:55:56.037Z,14.03
2019-04-30T07:58:26.170Z,13.40
2019-04-30T08:00:56.469Z,15.17
2019-04-30T08:03:44.889Z,13.40
2019-04-30T08:06:15.812Z,14.33
2019-04-30T08:08:50.113Z,14.83
2019-04-30T08:11:25.756Z,14.03
2019-04-30T08:13:51.943Z,14.53
2019-04-30T08:16:22.456Z,14.97
2019-04-30T08:18:52.550Z,15.17
2019-04-30T08:21:22.595Z,14.07
2019-04-30T08:23:54.412Z,14.70
2019-04-30T08:26:24.636Z,15.83
2019-04-30T08:28:54.694Z,15.93
2019-04-30T08:31:25.163Z,15.77
2019-04-30T08:33:55.227Z,15.80
2019-04-30T08:36:25.356Z,15.57
2019-04-30T08:38:55.471Z,15.07
2019-04-30T08:41:25.793Z,14.77
2019-04-30T08:43:55.960Z,15.50
2019-04-30T08:46:26.044Z,16.17
2019-04-30T08:48:56.270Z,16.47
2019-04-30T08:51:26.429Z,16.53
2019-04-30T08:53:58.728Z,16.20
2019-04-30T08:56:29.736Z,16.57
2019-04-30T08:58:59.970Z,17.03
2019-04-30T09:01:30.192Z,17.67
2019-04-30T09:04:00.251Z,17.57
2019-04-30T09:06:30.652Z,18.17
2019-04-30T09:09:11.815Z,18.47
2019-04-30T09:11:51.746Z,18.07
2019-04-30T09:14:13.655Z,18.90
2019-04-30T09:16:43.877Z,19.37
2019-04-30T09:19:14.432Z,18.80
2019-04-30T09:21:44.472Z,20.30
2019-04-30T09:24:14.662Z,19.30
2019-04-30T09:26:44.800Z,19.90
2019-04-30T09:29:14.962Z,20.17
2019-04-30T09:31:45.012Z,20.43
2019-04-30T09:34:17.913Z,19.80
2019-04-30T09:36:48.886Z,17.63
2019-04-30T09:39:19.892Z,18.10
2019-04-30T09:41:50.514Z,18.40
2019-04-30T09:44:21.008Z,19.70
2019-04-30T09:46:51.055Z,20.03
2019-04-30T09:49:21.196Z,19.13
2019-04-30T09:51:51.733Z,17.93
2019-04-30T09:54:22.448Z,18.20
2019-04-30T09:56:52.878Z,17.40
2019-04-30T09:59:23.179Z,19.47
2019-04-30T10:01:53.212Z,17.80
2019-04-30T10:04:23.833Z,17.30
2019-04-30T10:06:56.349Z,18.03
2019-04-30T10:09:26.231Z,18.07
2019-04-30T10:12:09.681Z,18.57
2019-04-30T10:14:41.021Z,18.10
2019-04-30T10:17:30.848Z,18.17
2019-04-30T10:20:00.981Z,17.70
2019-04-30T10:22:31.355Z,18.53
2019-04-30T10:25:01.503Z,17.97
2019-04-30T10:27:31.837Z,18.40
2019-04-30T10:30:02.509Z,19.07
2019-04-30T10:32:34.418Z,19.03
2019-04-30T10:35:04.920Z,19.10
2019-04-30T10:37:35.530Z,18.67
2019-04-30T10:40:06.458Z,20.30
2019-04-30T10:42:36.621Z,21.50
2019-04-30T10:45:09.819Z,20.40
2019-04-30T10:47:40.131Z,21.33
2019-04-30T10:50:10.443Z,20.80
2019-04-30T10:52:40.775Z,21.70
2019-04-30T10:55:11.167Z,20.93
2019-04-30T10:57:42.850Z,20.93
2019-04-30T11:00:14.480Z,21.93
2019-04-30T11:02:44.623Z,21.00
2019-04-30T11:05:15.012Z,21.23
2019-04-30T11:07:45.448Z,22.83
2019-04-30T11:10:16.005Z,20.67
2019-04-30T11:12:46.250Z,20.97
2019-04-30T11:15:16.355Z,22.40
2019-04-30T11:17:46.641Z,22.77
2019-04-30T11:20:17.300Z,22.97
2019-04-30T11:22:49.075Z,22.93
2019-04-30T11:25:19.902Z,22.37
2019-04-30T11:27:51.430Z,23.50
2019-04-30T11:30:24.403Z,23.17
2019-04-30T11:32:54.142Z,22.20
2019-04-30T11:35:25.413Z,21.93
2019-04-30T11:37:55.769Z,22.40
2019-04-30T11:40:34.356Z,23.67
2019-04-30T11:43:00.749Z,23.77
2019-04-30T11:46:12.065Z,23.43
2019-04-30T11:48:42.120Z,22.33
2019-04-30T11:51:12.219Z,23.10
2019-04-30T11:53:42.357Z,23.37
2019-04-30T11:56:12.516Z,23.27
2019-04-30T11:58:42.674Z,24.40
2019-04-30T12:01:16.760Z,24.07
2019-04-30T12:03:46.874Z,23.93
2019-04-30T12:06:18.507Z,24.07
2019-04-30T12:09:09.191Z,22.93
2019-04-30T12:11:39.543Z,23.30
2019-04-30T12:14:09.703Z,23.27
2019-04-30T12:16:40.183Z,24.03
2019-04-30T12:19:10.693Z,22.77
2019-04-30T12:21:42.419Z,23.77
2019-04-30T12:24:12.615Z,21.37
2019-04-30T12:26:42.689Z,22.57
2019-04-30T12:29:13.004Z,23.77
2019-04-30T12:31:43.321Z,23.17
2019-04-30T12:34:13.542Z,23.60
2019-04-30T12:36:43.723Z,22.93
2019-04-30T12:39:13.927Z,22.83
2019-04-30T12:41:44.090Z,23.50
2019-04-30T12:44:14.262Z,22.60
2019-04-30T12:46:44.351Z,23.93
2019-04-30T12:49:14.523Z,24.50
2019-04-30T12:52:19.579Z,24.33
2019-04-30T12:54:59.560Z,24.67
2019-04-30T12:57:33.671Z,24.37
2019-04-30T13:00:05.179Z,24.57
2019-04-30T13:02:35.750Z,24.17
2019-04-30T13:05:08.695Z,24.93
2019-04-30T13:07:40.039Z,24.47
2019-04-30T13:10:11.693Z,26.30
2019-04-30T13:12:42.869Z,27.30
2019-04-30T13:15:14.122Z,25.77
2019-04-30T13:17:44.250Z,26.00
2019-04-30T13:20:21.109Z,25.63
2019-04-30T13:22:46.353Z,26.07
2019-04-30T13:25:29.525Z,23.83
2019-04-30T13:27:52.063Z,25.07
2019-04-30T13:30:30.055Z,24.47
2019-04-30T13:33:09.456Z,24.17
2019-04-30T13:35:39.916Z,24.60
2019-04-30T13:38:16.813Z,25.40
2019-04-30T13:41:04.496Z,24.77
2019-04-30T13:43:52.483Z,26.20
2019-04-30T13:46:22.957Z,25.33
2019-04-30T13:48:56.096Z,23.73
2019-04-30T13:51:26.229Z,24.67
2019-04-30T13:53:56.340Z,25.50
2019-04-30T13:56:28.540Z,27.23
2019-04-30T13:58:58.215Z,26.67
2019-04-30T14:01:29.402Z,26.57
2019-04-30T14:04:18.831Z,26.87
2019-04-30T14:07:06.669Z,26.47
2019-04-30T14:09:36.928Z,26.30
2019-04-30T14:12:07.088Z,26.17
2019-04-30T14:14:39.419Z,25.67
2019-04-30T14:17:09.327Z,26.00
2019-04-30T14:19:39.624Z,25.40
2019-04-30T14:22:10.362Z,25.73
2019-04-30T14:24:40.528Z,25.70
2019-04-30T14:27:13.010Z,24.30
2019-04-30T14:29:43.203Z,24.30
2019-04-30T14:32:13.574Z,26.77
2019-04-30T14:34:43.637Z,28.57
2019-04-30T14:37:13.697Z,27.60
2019-04-30T14:39:43.949Z,28.13
2019-04-30T14:42:15.022Z,27.20
2019-04-30T14:44:46.979Z,27.47
2019-04-30T14:47:30.531Z,26.73
2019-04-30T14:50:11.724Z,27.63
2019-04-30T14:53:13.173Z,26.73
2019-04-30T14:56:14.169Z,27.23
2019-04-30T14:59:15.263Z,28.93
2019-04-30T15:01:53.481Z,28.37
2019-04-30T15:04:24.272Z,28.67
2019-04-30T15:06:54.326Z,29.83
2019-04-30T15:09:24.481Z,28.67
2019-04-30T15:11:54.645Z,28.50
2019-04-30T15:14:24.843Z,28.70
2019-04-30T15:16:54.976Z,28.10
2019-04-30T15:19:25.223Z,26.83
2019-04-30T15:21:55.330Z,27.03
2019-04-30T15:24:32.022Z,25.57
2019-04-30T15:27:02.171Z,26.57
2019-04-30T15:29:32.365Z,27.57
2019-04-30T15:32:02.573Z,26.40
2019-04-30T15:34:32.794Z,26.27
2019-04-30T15:37:03.832Z,27.20
2019-04-30T15:39:44.087Z,27.27
2019-04-30T15:42:15.084Z,30.87
2019-04-30T15:44:45.806Z,29.47
2019-04-30T15:47:24.076Z,30.03
2019-04-30T15:49:54.321Z,29.23
2019-04-30T15:52:24.374Z,29.63
2019-04-30T15:54:54.512Z,27.30
2019-04-30T15:57:29.529Z,30.57
2019-04-30T15:59:59.930Z,28.67
2019-04-30T16:02:57.317Z,29.67
2019-04-30T16:05:36.637Z,28.70
2019-04-30T16:08:18.999Z,28.53
2019-04-30T16:11:11.159Z,27.47
2019-04-30T16:14:09.380Z,27.67
2019-04-30T16:16:41.490Z,30.43
2019-04-30T16:19:11.712Z,30.07
2019-04-30T16:21:41.930Z,30.10
2019-04-30T16:24:12.064Z,28.80
2019-04-30T16:26:49.439Z,26.63
2019-04-30T16:29:14.040Z,28.57
2019-04-30T16:31:44.187Z,27.17
2019-04-30T16:34:14.242Z,26.53
2019-04-30T16:36:44.255Z,27.50
2019-04-30T16:39:14.392Z,28.00
2019-04-30T16:41:44.510Z,26.90
2019-04-30T16:44:14.562Z,27.77
2019-04-30T16:46:44.646Z,28.93
2019-04-30T16:49:14.688Z,28.63
2019-04-30T16:51:44.709Z,26.93
2019-04-30T16:54:14.767Z,26.50
2019-04-30T16:56:44.813Z,26.37
2019-04-30T16:59:17.850Z,25.90
2019-04-30T17:01:57.159Z,26.27
2019-04-30T17:04:39.074Z,27.00
2019-04-30T17:07:31.158Z,27.40
2019-04-30T17:10:09.912Z,28.87
2019-04-30T17:12:51.211Z,27.40
2019-04-30T17:15:25.787Z,27.43
2019-04-30T17:17:55.966Z,28.47
2019-04-30T17:20:26.188Z,27.37
2019-04-30T17:22:56.342Z,27.27
2019-04-30T17:25:26.573Z,25.77
2019-04-30T17:28:01.107Z,27.67
2019-04-30T17:30:29.323Z,25.37
2019-04-30T17:32:59.886Z,24.07
2019-04-30T17:35:30.355Z,26.27
2019-04-30T17:38:00.406Z,27.27
2019-04-30T17:40:30.554Z,26.20
2019-04-30T17:43:00.607Z,26.37
2019-04-30T17:45:30.744Z,26.37
2019-04-30T17:48:00.824Z,26.40
2019-04-30T17:50:30.912Z,26.97
2019-04-30T17:53:01.020Z,26.93
2019-04-30T17:55:31.653Z,26.97
2019-04-30T17:58:01.825Z,27.47
2019-04-30T18:00:33.600Z,25.83
2019-04-30T18:03:03.769Z,26.80
2019-04-30T18:05:34.472Z,27.27
2019-04-30T18:08:04.621Z,25.83
2019-04-30T18:10:35.567Z,26.53
2019-04-30T18:13:05.772Z,26.87
2019-04-30T18:15:35.933Z,26.07
2019-04-30T18:18:27.064Z,25.83
2019-04-30T18:21:19.087Z,25.60
2019-04-30T18:24:01.706Z,25.57
2019-04-30T18:26:32.445Z,26.00
2019-04-30T18:29:02.548Z,26.07
2019-04-30T18:31:32.728Z,26.60
2019-04-30T18:34:02.920Z,27.33
2019-04-30T18:36:33.002Z,27.10
2019-04-30T18:39:03.134Z,26.63
2019-04-30T18:41:33.440Z,28.10
2019-04-30T18:44:03.749Z,28.47
2019-04-30T18:46:33.817Z,27.67
2019-04-30T18:49:04.005Z,27.30
2019-04-30T18:51:39.329Z,25.80
2019-04-30T18:54:06.107Z,26.20
2019-04-30T18:56:36.202Z,25.13
2019-04-30T18:59:08.590Z,25.77
2019-04-30T19:01:38.173Z,25.93
2019-04-30T19:04:09.233Z,26.47
2019-04-30T19:06:39.540Z,26.17
2019-04-30T19:09:29.658Z,24.87
2019-04-30T19:12:24.313Z,26.47
2019-04-30T19:15:41.049Z,26.37
2019-04-30T19:18:08.873Z,25.07
2019-04-30T19:20:51.224Z,27.33
2019-04-30T19:23:21.352Z,27.43
2019-04-30T19:25:51.396Z,28.20
2019-04-30T19:28:21.645Z,27.67
2019-04-30T19:30:58.038Z,27.63
2019-04-30T19:33:25.252Z,29.03
2019-04-30T19:35:55.603Z,28.37
2019-04-30T19:38:25.741Z,29.87
2019-04-30T19:40:55.829Z,28.97
2019-04-30T19:43:26.157Z,29.63
2019-04-30T19:45:56.261Z,29.57
2019-04-30T19:48:26.393Z,29.80
2019-04-30T19:50:58.570Z,29.80
2019-04-30T19:53:30.239Z,29.73
2019-04-30T19:55:59.951Z,30.90
2019-04-30T19:58:48.061Z,29.70
2019-04-30T20:01:01.997Z,30.53
2019-04-30T20:03:32.057Z,29.10
2019-04-30T20:06:02.136Z,29.10
2019-04-30T20:08:32.289Z,29.97
2019-04-30T20:11:02.354Z,29.30
2019-04-30T20:13:37.087Z,30.27
2019-04-30T20:16:04.546Z,30.80
2019-04-30T20:18:34.590Z,29.33
2019-04-30T20:21:09.202Z,30.43
2019-04-30T20:23:39.503Z,29.97
2019-04-30T20:26:09.583Z,29.63
2019-04-30T20:28:42.385Z,30.87
2019-04-30T20:31:11.756Z,31.30
2019-04-30T20:33:41.908Z,30.43
2019-04-30T20:36:12.034Z,31.23
2019-04-30T20:39:19.314Z,31.60
2019-04-30T20:41:53.828Z,30.23
2019-04-30T20:44:24.247Z,31.33
2019-04-30T20:46:54.296Z,30.93
2019-04-30T20:49:24.443Z,31.87
2019-04-30T20:51:56.029Z,32.00
2019-04-30T20:54:29.136Z,32.87
2019-04-30T20:56:59.258Z,31.60
2019-04-30T20:59:29.753Z,33.63
2019-04-30T21:01:59.916Z,33.50
2019-04-30T21:04:30.048Z,33.80
2019-04-30T21:07:00.070Z,33.43
2019-04-30T21:09:30.199Z,33.73
2019-04-30T21:12:00.481Z,34.43
2019-04-30T21:14:30.519Z,34.60
2019-04-30T21:17:00.584Z,33.93
2019-04-30T21:19:30.794Z,33.97
2019-04-30T21:22:00.825Z,33.73
2019-04-30T21:24:30.972Z,32.37
2019-04-30T21:27:01.037Z,32.70
2019-04-30T21:29:31.184Z,32.97
2019-04-30T21:32:21.396Z,32.67
2019-04-30T21:34:58.415Z,33.47
2019-04-30T21:37:28.614Z,32.97
2019-04-30T21:39:58.730Z,33.67
2019-04-30T21:42:28.855Z,34.57
2019-04-30T21:44:58.916Z,34.90
2019-04-30T21:47:29.273Z,34.00
2019-04-30T21:49:59.312Z,32.43
2019-04-30T21:52:29.526Z,33.47
2019-04-30T21:54:59.856Z,33.93
2019-04-30T21:57:29.945Z,35.20
2019-04-30T22:00:00.171Z,34.20
2019-04-30T22:02:30.491Z,33.50
2019-04-30T22:05:00.689Z,34.20
2019-04-30T22:07:30.852Z,33.77
2019-04-30T22:10:00.991Z,32.67
2019-04-30T22:12:31.433Z,35.27
2019-04-30T22:15:02.174Z,32.30
2019-04-30T22:17:32.231Z,34.83
2019-04-30T22:20:02.357Z,33.10
2019-04-30T22:22:32.493Z,35.63
2019-04-30T22:25:02.551Z,36.13
2019-04-30T22:27:32.698Z,35.13
2019-04-30T22:30:03.244Z,35.10
2019-04-30T22:32:33.398Z,34.20
2019-04-30T22:35:21.682Z,35.17
2019-04-30T22:37:55.596Z,35.03
2019-04-30T22:40:25.697Z,35.07
2019-04-30T22:42:55.719Z,36.57
2019-04-30T22:45:33.553Z,35.33
2019-04-30T22:48:03.721Z,34.13
2019-04-30T22:50:33.824Z,36.67
2019-04-30T22:53:04.306Z,35.40
2019-04-30T22:55:34.370Z,37.33
2019-04-30T22:58:04.629Z,35.23
2019-04-30T23:00:43.306Z,37.50
2019-04-30T23:03:17.112Z,37.03
2019-04-30T23:05:47.228Z,36.67
2019-04-30T23:08:17.338Z,36.90
2019-04-30T23:10:47.982Z,36.93
2019-04-30T23:13:18.866Z,35.20
2019-04-30T23:15:53.480Z,35.37
2019-04-30T23:18:23.861Z,35.70
2019-04-30T23:20:54.059Z,38.23
2019-04-30T23:23:24.093Z,37.03
2019-04-30T23:25:55.976Z,37.70
2019-04-30T23:28:26.030Z,38.53
2019-04-30T23:30:56.063Z,38.53
2019-04-30T23:33:26.192Z,38.20
2019-04-30T23:35:56.368Z,39.47
2019-04-30T23:38:26.809Z,39.03
2019-04-30T23:40:56.896Z,40.90
2019-04-30T23:43:27.992Z,41.13
2019-04-30T23:45:58.281Z,41.23
2019-04-30T23:48:28.372Z,39.23
2019-04-30T23:50:58.596Z,38.77
2019-04-30T23:53:28.760Z,38.37
2019-04-30T23:55:58.957Z,38.40
2019-04-30T23:58:29.071Z,39.03
